This is the latest recevied weather packets stored in our database for station/object W7BTL. If no packets are shown the sender has not sent any weather packets the latest 10 day(s).
| Time | Temp. | Humidity | Pressure | Rain* | Wind** | Luminosity | Snow |
|---|---|---|---|---|---|---|---|
| 1788225704 | 26.11° C | 57% | 1011.8 hPa | 0 mm | - | 63 W/m² | - |
| 1788225400 | 26.11° C | 57% | 1011.8 hPa | 0 mm | - | 71 W/m² | - |
| 1788225099 | 26.67° C | 54% | 1011.7 hPa | 0 mm | - | 80 W/m² | - |
| 1788224794 | 26.67° C | 53% | 1011.8 hPa | 0 mm | - | 90 W/m² | - |
| 1788224493 | 26.67° C | 54% | 1011.7 hPa | 0 mm | - | 101 W/m² | - |
| 1788224192 | 27.22° C | 53% | 1011.8 hPa | 0 mm | - | 114 W/m² | - |
| 1788223888 | 27.78° C | 53% | 1011.9 hPa | 0 mm | - | 124 W/m² | - |
| 1788223587 | 27.78° C | 52% | 1011.9 hPa | 0 mm | - | 140 W/m² | - |
| 1788223282 | 27.78° C | 52% | 1012 hPa | 0 mm | - | 156 W/m² | - |
| 1788222977 | 28.33° C | 52% | 1011.9 hPa | 0 mm | - | 171 W/m² | - |
| 1788222676 | 28.33° C | 51% | 1011.9 hPa | 0 mm | - | 189 W/m² | - |
| 1788222376 | 28.33° C | 50% | 1011.8 hPa | 0 mm | - | 206 W/m² | - |
| 1788222071 | 28.89° C | 49% | 1011.9 hPa | 0 mm | - | 226 W/m² | - |
| 1788221766 | 29.44° C | 48% | 1011.9 hPa | 0 mm | - | 244 W/m² | - |
| 1788221461 | 29.44° C | 49% | 1011.9 hPa | 0 mm | - | 258 W/m² | - |
| 1788221156 | 30° C | 46% | 1012.1 hPa | 0 mm | - | 288 W/m² | - |
| 1788220852 | 30.56° C | 44% | 1011.9 hPa | 0 mm | - | 306 W/m² | - |
| 1788220551 | 30.56° C | 44% | 1011.8 hPa | 0 mm | - | 324 W/m² | - |
| 1788220247 | 30° C | 46% | 1011.6 hPa | 0 mm | - | 345 W/m² | - |
| 1788219940 | 30° C | 46% | 1011.9 hPa | 0 mm | - | 368 W/m² | - |
| 1788219637 | 30° C | 46% | 1011.6 hPa | 0 mm | - | 377 W/m² | - |
| 1788219331 | 30.56° C | 46% | 1011.8 hPa | 0 mm | - | 409 W/m² | - |
| 1788219027 | 30.56° C | 46% | 1011.8 hPa | 0 mm | - | 429 W/m² | - |
| 1788218722 | 30.56° C | 45% | 1011.7 hPa | 0 mm | - | 453 W/m² | - |
| 1788218418 | 30.56° C | 46% | 1011.9 hPa | 0 mm | - | 471 W/m² | - |
* Rain latest hour (hover to see other rain measurements)
** Current wind speed in m/s (hover to see current wind gust speed)